createdAt,value
2018-05-08T00:02:17.498Z,56.60
2018-05-08T00:04:44.993Z,56.00
2018-05-08T00:07:12.778Z,56.30
2018-05-08T00:09:40.259Z,56.00
2018-05-08T00:12:08.527Z,56.00
2018-05-08T00:14:36.288Z,55.90
2018-05-08T00:17:05.618Z,55.90
2018-05-08T00:19:34.275Z,55.90
2018-05-08T00:22:01.825Z,55.80
2018-05-08T00:24:29.343Z,55.90
2018-05-08T00:26:56.872Z,56.50
2018-05-08T00:29:25.139Z,57.20
2018-05-08T00:32:02.757Z,56.80
2018-05-08T00:34:30.258Z,57.60
2018-05-08T00:36:57.765Z,57.60
2018-05-08T00:39:25.299Z,57.40
2018-05-08T00:41:52.833Z,57.00
2018-05-08T00:47:29.531Z,57.60
2018-05-08T00:49:57.811Z,57.40
2018-05-08T00:52:26.406Z,57.90
2018-05-08T00:58:10.152Z,57.60
2018-05-08T01:00:37.651Z,57.80
2018-05-08T01:06:01.960Z,58.10
2018-05-08T01:08:29.475Z,58.10
2018-05-08T01:10:57.744Z,57.90
2018-05-08T01:13:25.259Z,58.60
2018-05-08T01:15:52.746Z,58.20
2018-05-08T01:18:32.810Z,58.40
2018-05-08T01:21:01.098Z,59.20
2018-05-08T01:26:37.302Z,58.50
2018-05-08T01:29:05.079Z,58.50
2018-05-08T01:31:33.399Z,59.00
2018-05-08T01:34:09.311Z,60.00
2018-05-08T01:36:36.831Z,59.90
2018-05-08T01:39:04.995Z,60.70
2018-05-08T01:41:32.837Z,60.50
2018-05-08T01:44:01.107Z,59.90
2018-05-08T01:46:28.643Z,59.90
2018-05-08T01:48:56.494Z,59.80
2018-05-08T01:51:23.982Z,59.70
2018-05-08T01:53:51.487Z,59.60
2018-05-08T01:56:19.781Z,60.40
2018-05-08T01:58:47.277Z,60.30
2018-05-08T02:01:14.850Z,60.80
2018-05-08T02:03:43.115Z,61.00
2018-05-08T02:06:11.409Z,61.30
2018-05-08T02:08:39.674Z,60.90
2018-05-08T02:11:11.038Z,60.70
2018-05-08T02:13:38.822Z,60.70
2018-05-08T02:16:06.332Z,60.60
2018-05-08T02:18:33.871Z,60.70
2018-05-08T02:21:02.168Z,59.50
2018-05-08T02:23:29.671Z,59.40
2018-05-08T02:25:57.580Z,59.70
2018-05-08T02:28:25.794Z,60.50
2018-05-08T02:30:53.291Z,60.50
2018-05-08T02:33:20.776Z,60.80
2018-05-08T02:35:49.036Z,61.70
2018-05-08T02:38:17.671Z,60.80
2018-05-08T02:40:45.168Z,60.70
2018-05-08T02:43:12.677Z,60.70
2018-05-08T02:45:40.488Z,60.90
2018-05-08T02:48:08.020Z,62.10
2018-05-08T02:50:35.551Z,63.20
2018-05-08T02:53:03.066Z,62.10
2018-05-08T02:55:30.579Z,61.60
2018-05-08T02:57:58.105Z,62.40
2018-05-08T03:00:26.395Z,61.60
2018-05-08T03:02:54.638Z,61.70
2018-05-08T03:05:24.169Z,61.70
2018-05-08T03:07:51.686Z,61.60
2018-05-08T03:10:19.187Z,62.20
2018-05-08T03:12:46.918Z,61.90
2018-05-08T03:15:14.697Z,62.20
2018-05-08T03:17:42.354Z,61.80
2018-05-08T03:20:11.055Z,61.70
2018-05-08T03:22:41.020Z,62.60
2018-05-08T03:25:11.240Z,63.30
2018-05-08T03:27:41.345Z,62.40
2018-05-08T03:30:11.833Z,62.80
2018-05-08T03:32:41.194Z,62.80
2018-05-08T03:35:12.714Z,62.90
2018-05-08T03:37:41.396Z,62.90
2018-05-08T03:40:13.223Z,62.30
2018-05-08T03:42:41.653Z,62.20
2018-05-08T03:45:11.169Z,62.30
2018-05-08T03:47:42.126Z,62.20
2018-05-08T03:50:12.340Z,62.50
2018-05-08T03:52:40.744Z,62.70
2018-05-08T03:55:10.692Z,63.70
2018-05-08T03:57:42.503Z,62.70
2018-05-08T04:06:12.871Z,63.30
2018-05-08T04:08:40.912Z,63.30
2018-05-08T04:11:12.115Z,63.50
2018-05-08T04:13:41.545Z,63.80
2018-05-08T04:16:10.661Z,63.70
2018-05-08T04:18:40.787Z,64.60
2018-05-08T04:21:10.825Z,65.10
2018-05-08T04:23:41.807Z,65.20
2018-05-08T04:29:11.432Z,65.30
2018-05-08T04:31:42.313Z,65.10
2018-05-08T04:37:11.756Z,66.20
2018-05-08T04:39:41.429Z,65.40
2018-05-08T04:42:10.744Z,65.50
2018-05-08T04:44:39.271Z,65.50
2018-05-08T04:47:10.966Z,65.70
2018-05-08T04:49:39.281Z,65.60
2018-05-08T04:52:22.247Z,66.40
2018-05-08T04:55:10.280Z,66.40
2018-05-08T04:57:40.972Z,66.40
2018-05-08T05:00:11.120Z,66.40
2018-05-08T05:02:39.581Z,66.30
2018-05-08T05:05:11.644Z,65.90
2018-05-08T05:07:39.954Z,65.30
2018-05-08T05:10:11.051Z,65.00
2018-05-08T05:12:43.213Z,65.00
2018-05-08T05:15:12.615Z,65.50
2018-05-08T05:17:41.072Z,65.60
2018-05-08T05:20:12.425Z,65.50
2018-05-08T05:25:40.655Z,64.80
2018-05-08T05:28:11.779Z,64.90
2018-05-08T05:30:42.608Z,64.20
2018-05-08T05:39:14.309Z,62.20
2018-05-08T07:16:41.922Z,48.40
2018-05-08T07:22:25.038Z,48.70
2018-05-08T07:25:10.221Z,48.60
2018-05-08T07:27:40.737Z,46.10
2018-05-08T07:33:09.824Z,43.10
2018-05-08T07:35:41.249Z,44.60
2018-05-08T07:38:11.982Z,44.60
2018-05-08T07:46:12.758Z,40.30
2018-05-08T07:51:40.761Z,40.60
2018-05-08T07:56:41.853Z,38.00
2018-05-08T07:59:11.080Z,39.30
2018-05-08T08:01:45.103Z,38.70
2018-05-08T08:04:13.180Z,37.70
2018-05-08T08:06:44.124Z,39.90
2018-05-08T08:09:14.584Z,38.00
2018-05-08T08:11:42.130Z,38.00
2018-05-08T08:14:11.644Z,34.90
2018-05-08T08:16:41.029Z,34.70
2018-05-08T08:19:11.754Z,33.30
2018-05-08T08:21:41.220Z,33.30
2018-05-08T08:27:11.067Z,33.30
2018-05-08T08:29:43.662Z,32.80
2018-05-08T08:32:11.273Z,32.80
2018-05-08T08:34:41.507Z,33.00
2018-05-08T08:37:12.307Z,33.30
2018-05-08T08:39:42.577Z,31.60
2018-05-08T08:42:11.009Z,32.50
2018-05-08T08:44:42.279Z,32.70
2018-05-08T08:47:11.436Z,31.10
2018-05-08T08:49:40.597Z,31.00
2018-05-08T08:52:10.726Z,30.00
2018-05-08T08:54:42.494Z,30.80
2018-05-08T08:57:13.905Z,30.80
2018-05-08T08:59:41.959Z,31.80
2018-05-08T09:02:10.696Z,31.60
2018-05-08T09:04:38.242Z,31.20
2018-05-08T09:07:11.988Z,30.30
2018-05-08T09:09:43.218Z,30.10
2018-05-08T09:12:11.504Z,29.60
2018-05-08T09:14:41.583Z,29.40
2018-05-08T09:17:10.753Z,29.20
2018-05-08T09:19:39.057Z,29.50
2018-05-08T09:22:13.811Z,29.40
2018-05-08T09:24:41.368Z,29.30
2018-05-08T09:27:09.121Z,30.10
2018-05-08T09:29:36.724Z,30.30
2018-05-08T09:32:04.294Z,29.50
2018-05-08T09:34:32.102Z,29.40
2018-05-08T09:36:59.599Z,28.50
2018-05-08T09:39:30.827Z,29.40
2018-05-08T09:41:58.464Z,29.40
2018-05-08T09:44:37.288Z,28.80
2018-05-08T09:47:05.584Z,29.50
2018-05-08T09:49:39.647Z,28.90
2018-05-08T09:52:07.204Z,28.90
2018-05-08T09:54:41.792Z,29.10
2018-05-08T09:57:09.486Z,28.90
2018-05-08T09:59:37.823Z,28.20
2018-05-08T10:02:11.707Z,28.20
2018-05-08T10:07:39.239Z,27.30
2018-05-08T10:10:13.044Z,27.20
2018-05-08T10:12:41.287Z,26.90
2018-05-08T10:15:11.801Z,27.20
2018-05-08T10:17:41.276Z,27.50
2018-05-08T10:20:10.789Z,26.40
2018-05-08T10:22:38.294Z,24.60
2018-05-08T10:25:10.326Z,25.10
2018-05-08T10:27:38.614Z,26.50
2018-05-08T10:30:06.937Z,25.20
2018-05-08T10:32:40.213Z,25.20
2018-05-08T10:35:11.817Z,24.80
2018-05-08T10:37:41.352Z,25.10
2018-05-08T10:40:12.412Z,24.60
2018-05-08T10:42:41.142Z,23.80
2018-05-08T10:48:14.515Z,24.80
2018-05-08T10:50:42.002Z,25.10
2018-05-08T10:53:29.283Z,25.00
2018-05-08T10:59:03.808Z,24.30
2018-05-08T11:01:31.325Z,25.20
2018-05-08T11:04:12.875Z,24.70
2018-05-08T11:06:43.109Z,24.70
2018-05-08T11:09:10.607Z,24.20
2018-05-08T11:11:41.094Z,23.80
2018-05-08T11:14:12.969Z,24.30
2018-05-08T11:16:41.258Z,24.50
2018-05-08T11:19:12.505Z,25.20
2018-05-08T11:21:41.279Z,25.40
2018-05-08T11:24:12.420Z,24.90
2018-05-08T11:26:41.143Z,25.20
2018-05-08T11:29:09.460Z,24.80
2018-05-08T11:31:39.117Z,24.80
2018-05-08T11:34:13.169Z,25.20
2018-05-08T11:36:40.968Z,25.30
2018-05-08T11:39:15.301Z,26.60
2018-05-08T11:42:12.512Z,26.60
2018-05-08T11:44:41.324Z,25.90
2018-05-08T11:47:11.190Z,26.10
2018-05-08T11:49:41.047Z,25.30
2018-05-08T11:52:09.757Z,25.30
2018-05-08T11:54:43.906Z,25.00
2018-05-08T11:59:55.753Z,23.70
2018-05-08T12:02:26.214Z,22.40
2018-05-08T12:05:09.122Z,22.40
2018-05-08T12:07:41.067Z,21.90
2018-05-08T12:10:10.957Z,21.50
2018-05-08T12:12:39.203Z,22.30
2018-05-08T12:15:12.664Z,22.30
2018-05-08T12:17:40.912Z,21.50
2018-05-08T12:20:09.652Z,23.10
2018-05-08T12:25:39.345Z,22.30
2018-05-08T12:28:12.524Z,22.10
2018-05-08T12:30:40.343Z,22.30
2018-05-08T12:33:11.576Z,22.70
2018-05-08T12:38:43.048Z,23.20
2018-05-08T12:41:11.240Z,23.40
2018-05-08T12:43:42.423Z,24.00
2018-05-08T12:46:09.951Z,24.00
2018-05-08T12:48:40.445Z,24.10
2018-05-08T12:51:13.126Z,23.20
2018-05-08T12:53:41.012Z,23.30
2018-05-08T12:56:10.505Z,23.40
2018-05-08T12:58:40.985Z,23.70
2018-05-08T13:12:41.082Z,23.30
2018-05-08T13:15:11.949Z,23.90
2018-05-08T13:17:40.534Z,24.70
2018-05-08T13:20:10.090Z,24.70
2018-05-08T13:22:41.228Z,24.30
2018-05-08T13:25:14.141Z,23.90
2018-05-08T13:27:41.673Z,24.20
2018-05-08T13:33:10.495Z,24.30
2018-05-08T13:35:41.314Z,24.00
2018-05-08T13:38:12.979Z,24.80
2018-05-08T13:40:40.508Z,24.40
2018-05-08T13:43:11.734Z,23.70
2018-05-08T13:48:42.354Z,23.80
2018-05-08T13:51:10.806Z,22.90
2018-05-08T13:53:41.263Z,23.60
2018-05-08T13:56:21.183Z,23.50
2018-05-08T13:58:48.717Z,24.90
2018-05-08T14:01:19.928Z,23.90
2018-05-08T14:06:31.071Z,24.80
2018-05-08T14:09:11.871Z,24.30
2018-05-08T14:11:41.243Z,24.50
2018-05-08T14:14:08.872Z,24.40
2018-05-08T14:16:36.368Z,24.50
2018-05-08T14:19:04.673Z,24.70
2018-05-08T14:21:33.010Z,24.10
2018-05-08T14:24:00.556Z,24.10
2018-05-08T14:26:28.816Z,24.80
2018-05-08T14:29:13.973Z,24.80
2018-05-08T14:31:41.610Z,24.20
2018-05-08T14:34:10.577Z,25.10
2018-05-08T14:36:43.608Z,25.40
2018-05-08T14:39:11.064Z,25.40
2018-05-08T14:41:38.656Z,24.20
2018-05-08T14:44:06.119Z,24.90
2018-05-08T14:46:34.076Z,25.40
2018-05-08T14:49:15.533Z,25.30
2018-05-08T14:51:43.119Z,25.30
2018-05-08T14:54:10.647Z,25.90
2018-05-08T14:56:39.988Z,25.70
2018-05-08T14:59:10.548Z,25.40
2018-05-08T15:01:39.627Z,26.40
2018-05-08T15:04:10.150Z,26.30
2018-05-08T15:06:39.616Z,26.10
2018-05-08T15:09:07.257Z,26.30
2018-05-08T15:11:38.691Z,26.60
2018-05-08T15:14:07.707Z,26.90
2018-05-08T15:16:35.196Z,26.90
2018-05-08T15:19:02.866Z,27.10
2018-05-08T15:27:17.731Z,27.40
2018-05-08T15:29:57.550Z,27.80
2018-05-08T15:32:30.899Z,28.40
2018-05-08T15:35:04.512Z,28.90
2018-05-08T15:37:33.595Z,28.20
2018-05-08T15:42:39.974Z,28.80
2018-05-08T15:45:07.438Z,28.80
2018-05-08T15:47:35.027Z,28.10
2018-05-08T15:50:02.728Z,28.80
2018-05-08T15:52:30.992Z,28.40
2018-05-08T15:57:13.387Z,28.80
2018-05-08T16:02:44.181Z,29.50
2018-05-08T16:05:15.512Z,29.40
2018-05-08T16:07:43.473Z,29.40
2018-05-08T16:10:13.099Z,30.00
2018-05-08T16:12:44.189Z,30.00
2018-05-08T16:15:12.767Z,30.00
2018-05-08T16:17:43.478Z,30.30
2018-05-08T16:20:14.179Z,29.70
2018-05-08T16:22:43.506Z,30.00
2018-05-08T16:25:12.837Z,30.00
2018-05-08T16:27:42.888Z,30.30
2018-05-08T16:30:14.905Z,30.30
2018-05-08T16:35:43.988Z,31.10
2018-05-08T16:38:13.295Z,31.10
2018-05-08T16:46:37.271Z,30.90
2018-05-08T16:49:07.346Z,30.70
2018-05-08T16:51:37.101Z,30.70
2018-05-08T16:54:06.891Z,30.70
2018-05-08T16:56:37.711Z,30.60
2018-05-08T16:59:06.786Z,30.40
2018-05-08T17:01:39.116Z,29.80
2018-05-08T17:04:06.710Z,30.00
2018-05-08T17:06:38.506Z,30.00
2018-05-08T17:09:06.846Z,30.00
2018-05-08T17:11:37.046Z,30.60
2018-05-08T17:14:08.157Z,30.80
2018-05-08T17:16:38.177Z,30.90
2018-05-08T17:19:06.892Z,31.20
2018-05-08T17:21:41.778Z,31.20
2018-05-08T17:24:09.328Z,31.20
2018-05-08T17:26:37.911Z,31.40
2018-05-08T17:29:06.957Z,31.70
2018-05-08T17:31:38.524Z,31.70
2018-05-08T17:34:08.014Z,32.00
2018-05-08T17:36:37.664Z,32.50
2018-05-08T17:39:06.943Z,32.50
2018-05-08T17:41:41.238Z,33.10
2018-05-08T17:44:36.608Z,33.10
2018-05-08T17:47:08.550Z,33.90
2018-05-08T17:49:36.934Z,33.10
2018-05-08T17:52:08.140Z,33.10
2018-05-08T17:54:37.003Z,33.30
2018-05-08T17:57:06.180Z,34.30
2018-05-08T18:02:41.574Z,34.50
2018-05-08T18:05:09.963Z,34.70
2018-05-08T18:07:41.123Z,34.70
2018-05-08T18:10:10.748Z,35.50
2018-05-08T18:12:38.301Z,34.90
2018-05-08T18:15:06.578Z,34.90
2018-05-08T18:17:37.745Z,35.70
2018-05-08T18:20:08.271Z,36.40
2018-05-08T18:22:36.678Z,41.10
2018-05-08T18:25:07.752Z,41.10
2018-05-08T18:27:36.932Z,41.50
2018-05-08T18:30:07.536Z,42.20
2018-05-08T18:32:38.408Z,43.10
2018-05-08T18:35:06.962Z,43.60
2018-05-08T18:37:37.025Z,43.90
2018-05-08T18:40:07.914Z,44.60
2018-05-08T18:45:36.935Z,45.10
2018-05-08T18:48:05.876Z,45.10
2018-05-08T18:53:15.980Z,45.60
2018-05-08T18:56:07.631Z,45.30
2018-05-08T18:58:37.517Z,45.10
2018-05-08T19:01:13.200Z,45.10
2018-05-08T19:09:36.314Z,43.80
2018-05-08T19:18:10.719Z,44.40
2018-05-08T19:23:40.172Z,45.00
2018-05-08T19:26:23.836Z,45.20
2018-05-08T19:29:10.607Z,44.90
2018-05-08T19:31:41.476Z,45.50
2018-05-08T19:34:12.415Z,45.20
2018-05-08T19:39:38.507Z,46.00
2018-05-08T19:42:09.793Z,46.00
2018-05-08T19:47:12.055Z,45.60
2018-05-08T19:49:41.550Z,46.10
2018-05-08T19:52:10.194Z,46.20
2018-05-08T19:54:39.566Z,47.00
2018-05-08T19:57:12.270Z,47.00
2018-05-08T20:00:12.124Z,47.00
2018-05-08T20:02:39.901Z,47.20
2018-05-08T20:05:10.649Z,48.10
